Time;durP1;ratioP1;P1;durP2;ratioP2;P2;SDS_P1;SDS_P2;PMS_P1;PMS_P2;Temp;Humidity;BMP_temperature;BMP_pressure;BME280_temperature;BME280_humidity;BME280_pressure;Samples;Min_cycle;Max_cycle;Signal;HPM_P1;HPM_P2
2022/10/04 00:00:25;;;;;;;1.15;0.82;;;;;;;15.11;98.41;101563.75;5018344;28;20128;-67
2022/10/04 00:02:59;;;;;;;3.58;0.70;;;;;;;15.03;98.07;101553.91;5027262;28;20037;-67
2022/10/04 00:05:25;;;;;;;2.67;1.13;;;;;;;14.99;98.06;101556.56;5029025;28;20048;-67
2022/10/04 00:07:55;;;;;;;4.00;0.75;;;;;;;14.93;97.48;101562.66;5029604;28;20108;-68
2022/10/04 00:10:27;;;;;;;6.97;1.10;;;;;;;14.85;96.92;101560.94;5027564;28;20091;-67
2022/10/04 00:13:00;;;;;;;0.95;0.75;;;;;;;14.83;96.87;101555.88;5029656;28;20033;-67
2022/10/04 00:15:29;;;;;;;1.67;0.88;;;;;;;14.76;97.08;101560.41;5009748;28;20568;-67
2022/10/04 00:18:10;;;;;;;2.22;0.70;;;;;;;14.67;96.76;101566.09;5020454;28;20037;-67
2022/10/04 00:20:52;;;;;;;1.33;0.88;;;;;;;14.60;96.30;101562.44;5018445;28;20037;-67
2022/10/04 00:23:23;;;;;;;3.88;0.90;;;;;;;14.50;96.51;101550.25;5029737;28;20057;-67
2022/10/04 00:26:32;;;;;;;1.92;1.00;;;;;;;14.56;96.19;101559.66;5029393;28;20033;-66
2022/10/04 00:28:57;;;;;;;1.85;1.10;;;;;;;14.47;95.92;101559.09;4986969;28;20486;-67
2022/10/04 00:31:25;;;;;;;1.67;1.05;;;;;;;14.43;95.68;101553.63;5029636;28;20041;-68
2022/10/04 00:34:03;;;;;;;3.53;1.20;;;;;;;14.37;96.11;101549.63;5011324;28;20030;-67
2022/10/04 00:36:36;;;;;;;4.25;1.17;;;;;;;14.31;96.05;101547.56;5021965;28;20111;-67
2022/10/04 00:39:08;;;;;;;3.25;0.95;;;;;;;14.33;96.36;101537.94;5027420;28;20129;-67
2022/10/04 00:41:42;;;;;;;;;;;;;;;14.31;95.93;101545.63;5028049;28;20051;-67
2022/10/04 00:44:33;;;;;;;2.53;0.98;;;;;;;14.33;96.03;101537.94;5028993;28;20010;-68
2022/10/04 00:47:00;;;;;;;2.33;1.52;;;;;;;14.21;95.60;101551.59;4987632;28;20048;-66
2022/10/04 00:49:35;;;;;;;3.63;1.05;;;;;;;14.12;95.91;101545.63;5028230;28;20037;-67
2022/10/04 00:52:05;;;;;;;2.08;1.02;;;;;;;14.13;96.16;101543.69;5027386;28;20056;-68
2022/10/04 00:54:40;;;;;;;4.10;1.08;;;;;;;14.12;95.88;101540.19;5032475;28;20379;-67
2022/10/04 00:57:09;;;;;;;1.90;1.08;;;;;;;14.14;95.42;101537.13;5033744;28;20045;-67
2022/10/04 00:59:45;;;;;;;2.08;0.70;;;;;;;14.15;95.30;101533.28;5032935;28;20560;-67
2022/10/04 01:02:30;;;;;;;0.85;0.75;;;;;;;14.10;95.06;101534.34;5025320;28;20037;-67
2022/10/04 01:04:59;;;;;;;6.03;1.13;;;;;;;14.07;94.94;101529.63;5026536;28;20041;-67
2022/10/04 01:07:37;;;;;;;2.70;0.93;;;;;;;14.02;95.31;101516.38;5032948;28;20044;-67
2022/10/04 01:10:27;;;;;;;1.63;0.95;;;;;;;14.11;95.23;101522.34;5030481;28;20033;-66
2022/10/04 01:13:21;;;;;;;3.10;1.10;;;;;;;14.16;95.59;101513.97;5031441;28;20036;-67
2022/10/04 01:15:58;;;;;;;6.03;1.23;;;;;;;14.12;95.75;101523.16;5013952;28;20065;-67
2022/10/04 01:18:23;;;;;;;7.25;1.10;;;;;;;14.05;95.80;101504.81;5025961;28;20034;-68
2022/10/04 01:21:06;;;;;;;1.23;0.90;;;;;;;14.13;95.66;101513.91;5028702;28;20111;-67
2022/10/04 01:23:45;;;;;;;1.88;0.82;;;;;;;14.04;95.89;101505.97;5021793;28;20038;-67
2022/10/04 01:26:29;;;;;;;2.95;1.05;;;;;;;14.01;96.08;101512.13;5032199;28;20092;-65
2022/10/04 01:28:58;;;;;;;1.70;0.90;;;;;;;14.01;95.82;101508.63;5032106;28;20044;-67
2022/10/04 01:31:25;;;;;;;2.28;1.33;;;;;;;14.08;95.63;101506.84;5030730;28;20037;-66
2022/10/04 01:33:52;;;;;;;1.23;0.80;;;;;;;14.02;95.80;101494.72;5048073;22;20381;-67
2022/10/04 01:36:19;;;;;;;3.42;0.90;;;;;;;14.02;96.05;101483.09;5042546;28;20028;-66
2022/10/04 01:38:45;;;;;;;2.58;1.08;;;;;;;14.07;95.93;101485.53;5053431;28;20503;-67
2022/10/04 01:41:13;;;;;;;1.52;0.95;;;;;;;14.13;96.21;101498.41;5051508;28;20029;-67
2022/10/04 01:43:42;;;;;;;4.72;0.98;;;;;;;14.16;96.18;101503.13;5052350;28;20045;-67
2022/10/04 01:46:15;;;;;;;4.30;0.85;;;;;;;14.07;96.65;101494.41;5051386;28;20035;-67
2022/10/04 01:48:44;;;;;;;3.83;1.20;;;;;;;13.92;97.81;101498.00;5052619;28;20056;-67
2022/10/04 01:51:17;;;;;;;3.42;1.50;;;;;;;13.72;99.33;101493.72;5047993;28;20041;-67
2022/10/04 01:54:09;;;;;;;7.55;1.27;;;;;;;13.61;100.00;101486.50;5030070;28;20489;-67
2022/10/04 01:56:43;;;;;;;3.40;1.48;;;;;;;13.78;100.00;101492.28;5051002;28;20041;-67
2022/10/04 01:59:18;;;;;;;1.50;1.02;;;;;;;13.83;99.80;101481.19;5044356;28;20045;-67
2022/10/04 02:01:56;;;;;;;3.53;1.20;;;;;;;13.87;99.61;101482.03;5050978;28;20108;-67
2022/10/04 02:04:27;;;;;;;1.95;1.20;;;;;;;13.83;99.06;101474.97;5071788;28;20047;-67
2022/10/04 02:06:56;;;;;;;1.70;1.08;;;;;;;13.70;98.75;101466.22;5059776;28;20439;-67
2022/10/04 02:09:30;;;;;;;2.70;1.25;;;;;;;13.77;98.73;101466.34;5047595;28;20051;-67
2022/10/04 02:11:57;;;;;;;4.03;1.35;;;;;;;13.81;98.04;101466.41;5054818;28;20050;-67
2022/10/04 02:14:34;;;;;;;1.25;0.98;;;;;;;13.61;99.06;101470.28;5072321;28;20044;-67
2022/10/04 02:17:09;;;;;;;1.98;0.98;;;;;;;13.52;99.50;101471.25;5042451;28;20065;-67
2022/10/04 02:19:38;;;;;;;8.77;1.40;;;;;;;13.34;100.00;101470.06;5044226;28;20060;-67
2022/10/04 02:22:06;;;;;;;2.63;1.08;;;;;;;13.42;100.00;101471.00;5051597;28;20044;-67
2022/10/04 02:24:35;;;;;;;2.25;1.23;;;;;;;13.59;100.00;101467.88;5048314;28;20069;-67
2022/10/04 02:27:01;;;;;;;4.80;1.00;;;;;;;13.58;100.00;101463.63;5013649;28;20092;-66
2022/10/04 02:29:27;;;;;;;2.92;1.40;;;;;;;13.68;100.00;101451.47;5063487;28;20428;-67
2022/10/04 02:34:39;;;;;;;1.38;0.75;;;;;;;13.48;100.00;101464.19;5033441;28;20037;-67
2022/10/04 02:37:06;;;;;;;3.10;0.90;;;;;;;13.36;100.00;101461.59;5051203;28;20399;-66
2022/10/04 02:39:50;;;;;;;2.70;1.13;;;;;;;13.41;100.00;101455.91;5050497;28;20044;-67
2022/10/04 02:42:24;;;;;;;2.92;1.08;;;;;;;13.35;100.00;101455.41;5047123;28;20043;-67
2022/10/04 02:45:04;;;;;;;2.58;1.15;;;;;;;13.40;100.00;101454.34;5047442;28;20120;-68
2022/10/04 02:47:42;;;;;;;2.13;1.13;;;;;;;13.49;100.00;101450.28;5045805;28;20072;-67
2022/10/04 02:50:21;;;;;;;4.15;1.20;;;;;;;13.55;100.00;101443.47;5037164;28;20033;-67
2022/10/04 02:52:57;;;;;;;1.13;1.02;;;;;;;13.60;100.00;101445.13;5055735;28;20541;-67
2022/10/04 02:55:27;;;;;;;1.30;1.00;;;;;;;13.62;100.00;101442.84;5049545;28;20602;-67
2022/10/04 02:57:54;;;;;;;1.55;0.80;;;;;;;13.78;100.00;101443.53;5045310;28;20037;-67
2022/10/04 03:00:31;;;;;;;3.20;1.10;;;;;;;13.80;100.00;101443.19;5046890;28;20420;-67
2022/10/04 03:03:20;;;;;;;3.13;1.02;;;;;;;13.71;100.00;101437.19;5055303;28;20040;-67
2022/10/04 03:06:09;;;;;;;1.75;1.00;;;;;;;13.87;99.77;101435.22;5053511;28;20104;-67
2022/10/04 03:08:48;;;;;;;2.50;0.98;;;;;;;13.73;99.79;101426.78;5052983;28;20589;-66
2022/10/04 03:11:15;;;;;;;4.60;1.23;;;;;;;13.84;99.64;101423.16;5050062;28;20055;-67
2022/10/04 03:13:45;;;;;;;2.95;1.17;;;;;;;13.72;99.57;101426.03;5048943;28;20045;-67
2022/10/04 03:16:11;;;;;;;1.00;0.90;;;;;;;13.81;99.70;101425.81;5049000;28;20033;-67
2022/10/04 03:18:37;;;;;;;2.95;1.00;;;;;;;13.69;99.65;101431.34;5053183;28;20029;-66
2022/10/04 03:21:06;;;;;;;0.70;0.60;;;;;;;13.68;99.76;101430.59;5038336;28;20043;-67
2022/10/04 03:23:33;;;;;;;1.75;0.75;;;;;;;13.75;100.00;101435.34;5050010;28;20028;-70
2022/10/04 03:26:32;;;;;;;1.58;0.73;;;;;;;13.73;99.75;101432.22;5048826;28;20397;-69
2022/10/04 03:28:58;;;;;;;0.77;0.63;;;;;;;13.76;99.54;101432.31;5041127;28;20118;-69
2022/10/04 03:31:27;;;;;;;2.90;0.70;;;;;;;13.68;100.00;101432.50;5053009;28;20110;-69
2022/10/04 03:33:55;;;;;;;2.03;1.00;;;;;;;13.59;100.00;101424.59;5049654;28;20595;-69
2022/10/04 03:36:23;;;;;;;1.63;1.20;;;;;;;13.54;100.00;101436.50;5043916;28;20422;-66
2022/10/04 03:38:53;;;;;;;2.75;1.25;;;;;;;13.62;100.00;101426.59;5043142;28;20029;-67
2022/10/04 03:41:19;;;;;;;0.95;0.70;;;;;;;13.67;100.00;101437.13;5049800;28;20067;-66
2022/10/04 03:43:47;;;;;;;4.25;1.15;;;;;;;13.74;100.00;101428.38;5050272;28;20473;-67
2022/10/04 03:46:13;;;;;;;4.78;1.10;;;;;;;13.70;100.00;101430.22;5049147;28;20047;-67
2022/10/04 03:48:44;;;;;;;1.27;0.75;;;;;;;13.73;100.00;101427.59;5050242;28;20032;-66
2022/10/04 03:51:16;;;;;;;2.65;1.10;;;;;;;13.73;99.81;101429.50;5050125;28;20147;-66
2022/10/04 03:53:45;;;;;;;1.75;0.90;;;;;;;13.72;99.84;101422.53;5043029;28;20071;-67
2022/10/04 03:56:17;;;;;;;2.55;1.35;;;;;;;13.73;99.61;101424.88;5047411;28;20029;-66
2022/10/04 03:58:44;;;;;;;3.45;0.88;;;;;;;13.72;99.94;101419.84;5042425;28;20478;-68
2022/10/04 04:01:43;;;;;;;2.42;1.05;;;;;;;13.81;99.64;101434.72;5047476;28;20451;-68
2022/10/04 04:04:19;;;;;;;1.50;0.50;;;;;;;13.82;99.29;101425.44;5051626;28;20043;-68
2022/10/04 04:07:18;;;;;;;1.25;0.77;;;;;;;13.74;99.33;101428.38;5060368;28;20045;-68
2022/10/04 04:10:14;;;;;;;1.92;0.90;;;;;;;13.72;99.07;101419.84;5028068;28;20413;-68
2022/10/04 04:12:46;;;;;;;1.58;0.73;;;;;;;13.65;99.33;101420.47;5049882;28;20044;-68
2022/10/04 04:15:13;;;;;;;3.50;1.13;;;;;;;13.63;99.32;101428.16;5042383;28;20033;-68
2022/10/04 04:17:45;;;;;;;2.85;1.10;;;;;;;13.63;99.31;101422.75;5038266;28;20433;-67
2022/10/04 04:20:19;;;;;;;2.38;0.70;;;;;;;13.61;99.74;101414.19;5046178;28;20028;-68
2022/10/04 04:22:56;;;;;;;1.88;1.30;;;;;;;13.65;99.21;101423.16;5050223;28;20154;-67
2022/10/04 04:25:23;;;;;;;1.38;1.00;;;;;;;13.69;98.99;101420.53;5046231;28;20021;-68
2022/10/04 04:27:49;;;;;;;1.00;0.93;;;;;;;13.65;99.18;101423.16;5049960;28;20037;-68
2022/10/04 04:30:16;;;;;;;1.58;0.80;;;;;;;13.62;98.99;101423.09;5045291;28;20040;-68
2022/10/04 04:32:47;;;;;;;1.45;0.90;;;;;;;13.70;98.76;101422.91;5053572;28;20033;-68
2022/10/04 04:35:42;;;;;;;1.70;0.90;;;;;;;13.69;99.03;101418.63;5052309;28;20043;-68
2022/10/04 04:38:22;;;;;;;3.45;1.00;;;;;;;13.74;98.97;101420.25;5031855;28;20051;-68
2022/10/04 04:40:48;;;;;;;1.65;1.08;;;;;;;13.68;98.64;101427.09;5053840;28;20033;-68
2022/10/04 04:43:18;;;;;;;1.30;0.82;;;;;;;13.71;98.79;101427.16;5053833;28;20124;-68
2022/10/04 04:45:47;;;;;;;1.73;1.13;;;;;;;13.74;98.62;101422.97;5052268;28;20029;-68
2022/10/04 04:48:16;;;;;;;0.98;0.88;;;;;;;13.71;99.00;101421.75;5063974;28;20503;-68
2022/10/04 04:50:47;;;;;;;5.20;1.35;;;;;;;13.71;98.56;101420.97;5040338;28;20022;-68
2022/10/04 04:53:19;;;;;;;2.83;1.35;;;;;;;13.73;98.72;101414.06;5041017;28;20408;-68
2022/10/04 04:55:48;;;;;;;5.28;1.17;;;;;;;13.72;98.51;101409.78;5037326;28;20048;-68
2022/10/04 04:58:20;;;;;;;2.67;1.05;;;;;;;13.67;98.44;101401.94;5053831;28;20032;-68
2022/10/04 05:00:49;;;;;;;;;;;;;;;13.76;98.61;101402.53;5050846;28;20024;-67
2022/10/04 05:03:18;;;;;;;2.33;0.90;;;;;;;13.74;98.40;101393.97;5042248;28;19908;-67
2022/10/04 05:05:46;;;;;;;4.20;1.08;;;;;;;13.70;98.51;101395.03;5052979;28;20029;-67
2022/10/04 05:08:22;;;;;;;2.30;1.25;;;;;;;13.76;98.38;101391.69;5052877;28;20101;-68
2022/10/04 05:10:56;;;;;;;1.75;1.10;;;;;;;13.77;98.99;101389.75;5025210;28;20056;-70
2022/10/04 05:13:29;;;;;;;2.90;1.33;;;;;;;13.76;98.57;101393.63;5053359;28;20028;-70
2022/10/04 05:15:58;;;;;;;3.00;1.52;;;;;;;13.73;99.11;101386.97;5047175;28;20071;-71
2022/10/04 05:18:28;;;;;;;2.42;0.90;;;;;;;13.74;99.36;101387.78;5049406;28;20052;-70
2022/10/04 05:20:56;;;;;;;2.90;1.13;;;;;;;13.83;99.18;101389.13;5045690;28;20029;-70
2022/10/04 05:23:22;;;;;;;2.45;1.50;;;;;;;13.80;99.61;101392.53;5048846;28;20051;-71
2022/10/04 05:25:48;;;;;;;3.55;1.65;;;;;;;13.79;99.70;101390.97;5045618;28;20025;-70
2022/10/04 05:28:15;;;;;;;4.43;1.60;;;;;;;13.89;99.45;101398.50;5044048;28;20025;-70
2022/10/04 05:31:08;;;;;;;4.53;1.67;;;;;;;13.78;99.75;101396.75;5050979;28;20126;-70
2022/10/04 05:33:43;;;;;;;3.65;1.63;;;;;;;13.64;100.00;101402.66;5050256;28;21135;-71
2022/10/04 05:36:08;;;;;;;2.65;1.42;;;;;;;13.73;100.00;101397.81;5040133;28;20106;-70
2022/10/04 05:39:02;;;;;;;2.78;1.48;;;;;;;13.71;100.00;101408.22;5050149;28;20120;-70
2022/10/04 05:41:38;;;;;;;2.53;1.50;;;;;;;13.75;100.00;101409.06;5056143;28;20044;-70
2022/10/04 05:44:39;;;;;;;8.23;1.70;;;;;;;13.80;100.00;101408.78;5051323;28;20028;-70
2022/10/04 05:47:06;;;;;;;2.53;1.35;;;;;;;13.80;100.00;101403.34;5032490;28;20045;-71
2022/10/04 05:49:42;;;;;;;1.83;1.60;;;;;;;13.70;100.00;101401.25;5046751;28;20037;-70
2022/10/04 05:52:26;;;;;;;3.13;1.50;;;;;;;13.83;100.00;101407.28;5039455;28;20148;-70
2022/10/04 05:55:10;;;;;;;3.10;1.50;;;;;;;13.80;100.00;101414.19;5042485;28;20124;-70
2022/10/04 05:57:54;;;;;;;3.40;1.42;;;;;;;13.78;100.00;101405.63;5050166;28;20418;-70
2022/10/04 06:00:22;;;;;;;5.25;1.48;;;;;;;13.88;100.00;101410.47;5042620;28;20055;-70
2022/10/04 06:03:19;;;;;;;3.70;1.70;;;;;;;13.74;100.00;101406.72;5037320;28;20090;-71
2022/10/04 06:05:50;;;;;;;11.90;2.00;;;;;;;13.78;100.00;101410.28;5042967;28;20029;-70
2022/10/04 06:08:43;;;;;;;;;;;;;;;13.82;100.00;101411.13;5050300;28;20119;-70
2022/10/04 06:11:25;;;;;;;6.97;2.53;;;;;;;13.83;100.00;101418.09;5040708;28;19924;-70
2022/10/04 06:14:10;;;;;;;6.10;2.50;;;;;;;13.87;100.00;101406.22;5045281;28;20036;-71
2022/10/04 06:16:46;;;;;;;7.72;2.38;;;;;;;13.76;100.00;101407.16;5045294;28;20046;-71
2022/10/04 06:19:47;;;;;;;4.30;1.65;;;;;;;13.86;100.00;101406.59;5028678;28;20060;-71
2022/10/04 06:22:25;;;;;;;2.05;1.38;;;;;;;13.83;100.00;101405.38;5040210;28;20033;-71
2022/10/04 06:25:00;;;;;;;2.05;1.23;;;;;;;13.93;100.00;101407.50;5044840;28;20025;-70
2022/10/04 06:27:28;;;;;;;3.90;1.77;;;;;;;13.92;100.00;101405.13;5043710;28;20029;-70
2022/10/04 06:30:04;;;;;;;4.57;1.67;;;;;;;13.94;100.00;101400.94;5026419;28;20414;-70
2022/10/04 06:32:50;;;;;;;4.43;2.13;;;;;;;14.02;100.00;101408.03;5046191;28;20115;-71
2022/10/04 06:35:21;;;;;;;3.78;1.75;;;;;;;13.99;99.87;101402.56;5018761;28;20049;-70
2022/10/04 06:38:22;;;;;;;2.88;1.70;;;;;;;13.93;100.00;101395.88;5035870;28;20099;-71
2022/10/04 06:41:11;;;;;;;9.40;1.90;;;;;;;13.96;100.00;101400.56;5046686;28;20516;-71
2022/10/04 06:43:48;;;;;;;6.65;2.13;;;;;;;13.93;100.00;101402.06;5054009;28;20032;-71
2022/10/04 06:46:35;;;;;;;4.50;1.80;;;;;;;13.89;99.91;101392.31;5045330;28;20057;-71
2022/10/04 06:49:14;;;;;;;3.55;1.80;;;;;;;13.89;100.00;101393.09;5041841;28;20060;-71
2022/10/04 06:51:51;;;;;;;6.28;2.38;;;;;;;13.85;99.95;101403.09;5048744;28;20031;-70
2022/10/04 06:54:17;;;;;;;5.35;2.05;;;;;;;13.87;100.00;101405.41;5045656;28;20393;-70
2022/10/04 06:57:04;;;;;;;3.38;1.77;;;;;;;13.82;100.00;101403.78;5045316;28;20032;-70
2022/10/04 07:00:00;;;;;;;2.85;1.73;;;;;;;13.89;100.00;101408.56;5041119;28;20461;-70
2022/10/04 07:02:32;;;;;;;5.43;2.20;;;;;;;13.94;100.00;101409.03;5053749;28;20033;-70
2022/10/04 07:05:04;;;;;;;4.43;2.25;;;;;;;14.07;100.00;101410.44;5039711;28;20041;-71
2022/10/04 07:07:35;;;;;;;;;;;;;;;14.13;100.00;101400.88;5030367;28;20130;-70
2022/10/04 07:10:21;;;;;;;8.88;2.70;;;;;;;14.14;100.00;101397.06;5045567;28;21216;-70
2022/10/04 07:13:02;;;;;;;8.38;1.90;;;;;;;14.28;100.00;101410.09;5041577;28;20083;-71
2022/10/04 07:15:33;;;;;;;4.20;2.15;;;;;;;14.40;100.00;101410.69;5046329;28;20041;-70
2022/10/04 07:18:06;;;;;;;2.90;2.00;;;;;;;14.68;100.00;101418.50;5040249;28;20048;-70
2022/10/04 07:20:34;;;;;;;3.92;2.25;;;;;;;14.93;100.00;101413.47;5041269;28;20029;-70
2022/10/04 07:23:13;;;;;;;3.80;2.17;;;;;;;14.97;100.00;101412.38;5046698;28;20029;-71
2022/10/04 07:25:46;;;;;;;2.95;2.00;;;;;;;15.21;100.00;101425.50;5045075;28;20441;-70
2022/10/04 07:31:05;;;;;;;3.60;1.83;;;;;;;15.14;98.34;101424.63;5038143;28;20049;-70
2022/10/04 07:36:07;;;;;;;4.85;2.00;;;;;;;15.20;98.58;101428.59;4990978;28;20596;-66
2022/10/04 07:38:41;;;;;;;3.25;1.70;;;;;;;15.14;98.67;101430.03;4995313;28;20434;-67
2022/10/04 07:41:17;;;;;;;2.80;1.58;;;;;;;15.03;98.42;101429.13;4985181;28;20113;-67
2022/10/04 07:44:03;;;;;;;5.97;1.83;;;;;;;14.97;98.57;101431.38;4980945;28;20042;-66
2022/10/04 07:46:53;;;;;;;6.72;1.90;;;;;;;14.92;98.68;101430.91;4994176;28;20035;-65
2022/10/04 07:49:20;;;;;;;4.22;2.30;;;;;;;14.97;98.32;101428.66;4990880;28;20030;-66
2022/10/04 07:52:01;;;;;;;2.33;1.88;;;;;;;14.94;98.86;101436.75;4988154;28;20038;-65
2022/10/04 07:54:38;;;;;;;2.70;1.52;;;;;;;14.96;98.84;101435.22;4993028;28;20066;-66
2022/10/04 07:57:10;;;;;;;7.30;2.33;;;;;;;15.02;98.36;101433.00;4986789;28;20512;-66
2022/10/04 07:59:54;;;;;;;6.07;2.00;;;;;;;15.09;98.22;101433.88;5005629;28;20065;-66
2022/10/04 08:02:38;;;;;;;4.43;2.10;;;;;;;14.90;98.39;101433.19;4981214;28;20392;-65
2022/10/04 08:05:15;;;;;;;4.63;2.03;;;;;;;15.01;98.91;101436.84;4987027;28;20034;-66
2022/10/04 08:08:12;;;;;;;2.90;1.63;;;;;;;15.12;98.58;101432.34;4987863;28;20034;-67
2022/10/04 08:11:09;;;;;;;2.42;1.63;;;;;;;15.14;98.44;101427.34;4985309;28;20148;-66
2022/10/04 08:13:50;;;;;;;2.85;1.73;;;;;;;15.21;97.83;101425.50;4987731;28;20117;-65
2022/10/04 08:16:43;;;;;;;4.97;2.03;;;;;;;15.27;97.93;101436.84;4990209;28;20081;-66
2022/10/04 08:19:32;;;;;;;8.55;1.98;;;;;;;15.31;97.70;101421.38;4979787;28;20042;-65
2022/10/04 08:22:03;;;;;;;2.22;1.40;;;;;;;15.36;98.17;101434.63;4984507;28;20039;-65
2022/10/04 08:24:35;;;;;;;3.83;1.73;;;;;;;15.25;98.76;101431.00;4987064;28;20069;-66
2022/10/04 08:27:00;;;;;;;2.22;1.75;;;;;;;15.39;98.34;101429.25;4983869;28;20038;-66
2022/10/04 08:29:41;;;;;;;4.72;1.88;;;;;;;15.45;98.34;101426.25;4985652;28;20049;-66
2022/10/04 08:32:32;;;;;;;4.18;2.03;;;;;;;15.63;97.55;101430.75;4988169;28;20042;-66
2022/10/04 08:35:16;;;;;;;4.80;1.77;;;;;;;15.77;97.34;101425.50;4990762;28;20046;-66
2022/10/04 08:37:56;;;;;;;5.38;2.72;;;;;;;15.72;97.37;101428.53;4994207;28;20262;-66
2022/10/04 08:40:56;;;;;;;4.43;2.30;;;;;;;15.82;97.33;101419.72;4996950;28;20038;-66
2022/10/04 08:43:37;;;;;;;3.50;2.08;;;;;;;16.10;97.22;101428.16;5000002;28;20089;-67
2022/10/04 08:46:31;;;;;;;3.53;1.88;;;;;;;16.06;96.05;101426.59;4999288;28;20027;-65
2022/10/04 08:49:09;;;;;;;3.92;1.98;;;;;;;16.19;96.96;101431.38;4993551;28;20034;-65
2022/10/04 08:52:01;;;;;;;5.90;2.20;;;;;;;16.24;96.54;101424.81;4984993;28;20030;-66
2022/10/04 08:54:34;;;;;;;3.00;1.83;;;;;;;16.45;95.64;101432.41;4984316;28;20042;-65
2022/10/04 08:57:13;;;;;;;3.65;2.00;;;;;;;16.63;95.17;101433.34;4990154;28;20097;-66
2022/10/04 09:00:15;;;;;;;2.75;1.77;;;;;;;16.77;94.13;101433.47;4984135;28;20034;-66
2022/10/04 09:03:07;;;;;;;2.20;1.45;;;;;;;16.90;94.17;101429.28;4985345;28;20044;-66
2022/10/04 09:05:54;;;;;;;;;;;;;;;16.74;93.27;101428.78;4974952;28;20039;-66
2022/10/04 09:08:38;;;;;;;9.20;2.38;;;;;;;16.74;93.29;101436.94;4986920;28;19918;-66
2022/10/04 09:11:20;;;;;;;3.67;1.80;;;;;;;16.59;93.55;101425.16;4986318;28;20042;-66
2022/10/04 09:14:11;;;;;;;2.97;1.83;;;;;;;16.79;93.41;101426.50;4987448;28;20034;-66
2022/10/04 09:16:52;;;;;;;4.57;1.42;;;;;;;16.81;92.74;101428.84;4992147;28;20054;-66
2022/10/04 09:19:17;;;;;;;;;;;;;;;16.92;93.16;101433.19;4994398;28;20399;-67
2022/10/04 09:21:46;;;;;;;4.60;2.30;;;;;;;16.84;93.18;101428.09;4997631;28;19921;-66
2022/10/04 09:24:30;;;;;;;2.72;1.77;;;;;;;16.74;93.38;101434.22;4996491;28;20117;-67
2022/10/04 09:27:14;;;;;;;2.78;1.60;;;;;;;16.86;93.31;101425.78;4993533;28;20042;-67
2022/10/04 09:30:20;;;;;;;5.93;2.03;;;;;;;16.99;93.73;101424.31;4997210;28;20026;-67
2022/10/04 09:33:14;;;;;;;2.65;1.77;;;;;;;17.03;92.80;101423.16;4990794;28;20037;-66
2022/10/04 09:36:18;;;;;;;3.78;1.90;;;;;;;17.10;92.41;101420.50;4986057;28;20042;-66
2022/10/04 09:38:52;;;;;;;2.88;1.60;;;;;;;17.23;92.43;101415.50;4978873;28;20502;-66
2022/10/04 09:41:39;;;;;;;3.30;1.50;;;;;;;17.17;92.11;101406.13;4990237;28;20035;-67
2022/10/04 09:44:26;;;;;;;3.30;1.77;;;;;;;17.33;91.68;101403.88;4987621;28;20060;-68
2022/10/04 09:47:30;;;;;;;7.53;1.80;;;;;;;17.11;91.82;101405.72;4990635;28;20565;-65
2022/10/04 09:50:16;;;;;;;6.65;1.80;;;;;;;17.24;91.78;101398.00;4969099;28;20055;-65
2022/10/04 09:52:56;;;;;;;7.47;1.85;;;;;;;17.35;91.88;101403.50;4969514;28;20530;-67
2022/10/04 09:56:14;;;;;;;5.18;1.80;;;;;;;17.36;92.22;101399.63;4967447;28;20043;-67
2022/10/04 09:58:55;;;;;;;2.38;1.60;;;;;;;17.53;92.06;101401.69;4963195;28;20058;-66
2022/10/04 10:01:39;;;;;;;4.50;1.95;;;;;;;17.65;90.30;101399.38;4961492;28;20053;-66
2022/10/04 10:04:18;;;;;;;5.10;1.77;;;;;;;17.54;89.59;101395.84;4964562;28;20073;-66
2022/10/04 10:06:53;;;;;;;5.22;1.63;;;;;;;17.40;90.88;101403.91;4963832;28;20094;-66
2022/10/04 10:15:33;;;;;;;5.75;2.03;;;;;;;17.68;89.17;101398.63;4960443;28;20043;-66
2022/10/04 10:18:17;;;;;;;3.35;1.40;;;;;;;17.75;89.04;101400.59;4969814;28;20047;-67
2022/10/04 10:21:25;;;;;;;2.38;1.35;;;;;;;17.77;89.87;101398.25;4968315;28;20039;-66
2022/10/04 10:24:20;;;;;;;2.25;1.45;;;;;;;17.89;89.11;101412.31;4957241;28;20061;-69
2022/10/04 10:26:56;;;;;;;2.13;1.27;;;;;;;17.96;88.43;101406.88;4974145;28;20065;-69
2022/10/04 10:29:27;;;;;;;2.58;0.98;;;;;;;18.06;88.64;101412.75;5007066;28;20431;-66
2022/10/04 10:31:53;;;;;;;;;;;;;;;18.11;87.11;101409.63;4984833;28;20039;-66
2022/10/04 10:34:18;;;;;;;2.33;1.40;;;;;;;18.09;88.16;101412.75;4986455;28;19924;-66
2022/10/04 10:36:57;;;;;;;4.15;1.25;;;;;;;18.00;88.09;101413.09;4990937;28;20027;-67
2022/10/04 10:39:41;;;;;;;1.80;1.20;;;;;;;18.07;87.72;101398.72;4987716;28;20494;-66
2022/10/04 10:42:28;;;;;;;2.63;1.40;;;;;;;18.28;87.40;101397.97;4983826;28;20089;-66
2022/10/04 10:45:13;;;;;;;4.30;1.20;;;;;;;18.46;86.44;101406.97;4990109;28;20034;-66
2022/10/04 10:48:04;;;;;;;1.77;1.17;;;;;;;18.80;85.98;101403.44;4987309;28;20049;-66
2022/10/04 10:51:00;;;;;;;4.95;1.77;;;;;;;19.12;84.91;101388.97;4988364;28;20380;-66
2022/10/04 10:53:44;;;;;;;2.15;1.30;;;;;;;19.15;83.69;101388.94;4988226;28;20108;-66
2022/10/04 10:56:35;;;;;;;2.13;1.25;;;;;;;19.26;81.83;101388.94;4986259;28;20040;-66
2022/10/04 10:59:28;;;;;;;3.42;1.27;;;;;;;19.39;81.76;101390.06;4988147;28;20046;-66
2022/10/04 11:02:28;;;;;;;2.55;1.42;;;;;;;19.35;80.94;101383.84;4986674;28;20407;-66
2022/10/04 11:05:37;;;;;;;3.53;2.13;;;;;;;19.51;79.26;101379.47;4982959;28;20034;-66
2022/10/04 11:08:09;;;;;;;2.33;1.42;;;;;;;19.57;77.91;101388.81;4987308;28;20650;-66
2022/10/04 11:10:53;;;;;;;3.53;2.22;;;;;;;19.71;77.16;101388.75;4990394;28;20038;-66
2022/10/04 11:13:34;;;;;;;7.45;1.80;;;;;;;19.51;77.30;101382.19;4985972;28;20162;-66
2022/10/04 11:16:37;;;;;;;3.30;1.88;;;;;;;19.50;76.44;101383.38;4986703;28;20739;-65
2022/10/04 11:19:33;;;;;;;8.68;1.55;;;;;;;19.56;77.62;101384.53;4986378;28;20128;-67
2022/10/04 11:22:19;;;;;;;6.00;1.52;;;;;;;19.49;77.01;101379.09;4991825;28;20058;-66
2022/10/04 11:25:02;;;;;;;3.67;1.50;;;;;;;19.61;77.09;101370.44;4993265;28;20034;-65
2022/10/04 11:27:57;;;;;;;2.50;1.58;;;;;;;19.52;77.21;101375.56;4996715;28;20038;-66
2022/10/04 11:31:17;;;;;;;5.20;1.80;;;;;;;19.37;75.71;101368.63;4991943;28;20050;-65
2022/10/04 11:34:11;;;;;;;3.67;1.75;;;;;;;19.51;75.94;101368.53;4979229;28;20034;-65
2022/10/04 11:36:48;;;;;;;3.13;1.40;;;;;;;19.35;76.97;101362.78;4984571;28;20104;-65
2022/10/04 11:39:25;;;;;;;4.95;1.70;;;;;;;19.40;77.27;101362.34;4990751;28;20089;-65
2022/10/04 11:41:59;;;;;;;3.50;1.52;;;;;;;19.50;76.84;101369.72;4990636;28;20041;-67
2022/10/04 11:44:58;;;;;;;2.22;1.35;;;;;;;19.21;78.34;101364.72;4986906;28;20490;-66
2022/10/04 11:47:51;;;;;;;4.88;1.73;;;;;;;19.37;77.70;101354.97;5001182;28;20133;-67
2022/10/04 11:50:37;;;;;;;4.63;1.33;;;;;;;19.42;76.57;101349.06;4988434;28;20130;-66
2022/10/04 11:53:28;;;;;;;1.98;1.40;;;;;;;19.61;74.62;101356.00;4993474;28;20048;-66
2022/10/04 11:56:03;;;;;;;2.08;1.27;;;;;;;19.60;74.10;101344.31;4989828;28;20077;-66
2022/10/04 11:59:19;;;;;;;2.13;1.00;;;;;;;19.71;73.20;101336.03;4985777;28;20101;-66
2022/10/04 12:02:31;;;;;;;2.58;0.90;;;;;;;19.54;74.55;101340.44;4980418;28;20628;-66
2022/10/04 12:05:02;;;;;;;2.30;0.82;;;;;;;19.70;74.50;101324.31;4969296;28;20042;-66
2022/10/04 12:07:44;;;;;;;3.75;0.90;;;;;;;19.73;74.15;101326.25;4988614;28;20074;-66
2022/10/04 12:10:09;;;;;;;2.67;1.05;;;;;;;19.74;73.53;101316.84;5009866;28;20095;-66
2022/10/04 12:12:46;;;;;;;2.17;0.80;;;;;;;19.72;73.63;101307.53;4991431;28;20030;-66
2022/10/04 12:15:48;;;;;;;1.67;0.88;;;;;;;19.61;72.91;101310.31;4994834;28;20049;-66
2022/10/04 12:18:34;;;;;;;0.98;0.63;;;;;;;19.57;72.55;101312.28;4981443;28;20065;-66
2022/10/04 12:21:22;;;;;;;1.05;0.60;;;;;;;19.45;72.99;101309.25;4985807;28;20486;-69
2022/10/04 12:24:03;;;;;;;3.92;0.90;;;;;;;19.45;72.97;101306.50;4978726;28;20080;-65
2022/10/04 12:27:03;;;;;;;6.25;0.75;;;;;;;19.68;72.57;101293.09;4985667;28;20046;-66
2022/10/04 12:29:39;;;;;;;0.50;0.50;;;;;;;19.71;71.90;101308.69;4987535;28;20121;-65
2022/10/04 12:32:29;;;;;;;1.00;0.60;;;;;;;19.85;71.41;101285.94;4974166;28;20489;-67